createdAt,value
2022-11-26T00:02:21.587Z,59.60
2022-11-26T00:04:48.539Z,57.83
2022-11-26T00:07:17.361Z,60.22
2022-11-26T00:09:45.382Z,61.97
2022-11-26T00:12:16.497Z,65.47
2022-11-26T00:14:43.293Z,62.58
2022-11-26T00:17:12.373Z,70.45
2022-11-26T00:19:39.192Z,73.30
2022-11-26T00:22:06.385Z,73.97
2022-11-26T00:24:32.930Z,73.65
2022-11-26T00:27:00.009Z,69.57
2022-11-26T00:29:26.468Z,63.88
2022-11-26T00:31:53.013Z,71.80
2022-11-26T00:34:19.522Z,61.92
2022-11-26T00:36:47.134Z,61.75
2022-11-26T00:39:16.573Z,70.72
2022-11-26T00:41:45.921Z,68.00
2022-11-26T00:44:31.693Z,65.43
2022-11-26T00:46:58.127Z,59.35
2022-11-26T00:49:24.607Z,57.78
2022-11-26T00:51:51.172Z,56.15
2022-11-26T00:54:18.641Z,55.17
2022-11-26T00:56:45.549Z,58.17
2022-11-26T00:59:13.649Z,60.35
2022-11-26T01:01:40.241Z,58.50
2022-11-26T01:04:06.986Z,59.70
2022-11-26T01:06:34.930Z,52.38
2022-11-26T01:09:01.665Z,53.42
2022-11-26T01:11:28.488Z,62.55
2022-11-26T01:13:55.486Z,61.50
2022-11-26T01:16:26.556Z,61.35
2022-11-26T01:18:54.072Z,62.03
2022-11-26T01:21:21.053Z,58.47
2022-11-26T01:23:47.803Z,59.08
2022-11-26T01:26:19.387Z,58.35
2022-11-26T01:28:45.875Z,58.40
2022-11-26T01:31:16.604Z,51.03
2022-11-26T01:33:43.324Z,59.45
2022-11-26T01:36:33.101Z,56.15
2022-11-26T01:39:04.472Z,61.70
2022-11-26T01:41:30.853Z,65.15
2022-11-26T01:43:58.080Z,68.28
2022-11-26T01:46:26.443Z,64.82
2022-11-26T01:48:53.174Z,61.63
2022-11-26T01:51:26.809Z,61.10
2022-11-26T01:53:56.211Z,63.33
2022-11-26T01:56:42.858Z,63.45
2022-11-26T01:59:17.379Z,59.70
2022-11-26T02:01:44.140Z,55.40
2022-11-26T02:04:16.730Z,50.90
2022-11-26T02:06:43.628Z,52.03
2022-11-26T02:09:11.718Z,53.55
2022-11-26T02:11:38.668Z,54.67
2022-11-26T02:14:10.717Z,53.28
2022-11-26T02:16:55.991Z,53.20
2022-11-26T02:19:37.805Z,67.45
2022-11-26T02:22:23.711Z,73.47
2022-11-26T02:24:54.677Z,72.82
2022-11-26T02:27:40.563Z,66.80
2022-11-26T02:30:12.251Z,73.63
2022-11-26T02:32:54.443Z,71.28
2022-11-26T02:35:33.093Z,68.18
2022-11-26T02:38:02.104Z,66.78
2022-11-26T02:40:28.532Z,68.07
2022-11-26T02:42:54.948Z,65.18
2022-11-26T02:45:26.314Z,64.78
2022-11-26T02:47:54.499Z,62.35
2022-11-26T02:50:39.748Z,60.92
2022-11-26T02:53:07.289Z,64.53
2022-11-26T02:55:35.698Z,70.07
2022-11-26T02:58:02.606Z,64.53
2022-11-26T03:00:29.579Z,62.08
2022-11-26T03:02:59.638Z,68.25
2022-11-26T03:05:26.457Z,57.50
2022-11-26T03:07:54.174Z,63.63
2022-11-26T03:10:25.125Z,60.33
2022-11-26T03:12:51.552Z,60.22
2022-11-26T03:15:18.008Z,58.47
2022-11-26T03:17:44.470Z,59.92
2022-11-26T03:20:11.081Z,59.60
2022-11-26T03:22:37.637Z,62.85
2022-11-26T03:25:05.012Z,60.20
2022-11-26T03:27:31.515Z,61.50
2022-11-26T03:29:57.943Z,57.78
2022-11-26T03:32:24.481Z,65.20
2022-11-26T03:34:50.952Z,62.83
2022-11-26T03:37:17.597Z,57.55
2022-11-26T03:39:44.071Z,65.75
2022-11-26T03:42:10.633Z,62.08
2022-11-26T03:44:37.328Z,65.55
2022-11-26T03:47:03.958Z,61.85
2022-11-26T03:49:30.388Z,62.10
2022-11-26T03:51:56.806Z,58.05
2022-11-26T03:54:23.222Z,55.35
2022-11-26T03:56:49.718Z,51.78
2022-11-26T03:59:16.193Z,55.72
2022-11-26T04:01:42.699Z,49.58
2022-11-26T04:04:09.326Z,51.50
2022-11-26T04:06:35.758Z,51.45
2022-11-26T04:09:02.248Z,50.97
2022-11-26T04:11:28.742Z,50.28
2022-11-26T04:13:55.183Z,50.15
2022-11-26T04:16:21.753Z,50.65
2022-11-26T04:18:48.327Z,47.88
2022-11-26T04:21:14.787Z,48.97
2022-11-26T04:23:41.253Z,48.75
2022-11-26T04:26:07.783Z,45.78
2022-11-26T04:28:34.210Z,48.80
2022-11-26T04:31:00.945Z,45.55
2022-11-26T04:33:27.392Z,47.40
2022-11-26T04:35:54.005Z,40.03
2022-11-26T04:38:25.334Z,43.65
2022-11-26T04:43:18.585Z,40.10
2022-11-26T04:45:45.147Z,47.78
2022-11-26T04:48:11.815Z,57.13
2022-11-26T04:50:38.249Z,54.03
2022-11-26T04:53:04.731Z,56.58
2022-11-26T04:55:31.221Z,54.65
2022-11-26T04:57:57.635Z,55.08
2022-11-26T05:00:24.151Z,51.97
2022-11-26T05:02:50.771Z,49.55
2022-11-26T05:05:17.263Z,50.38
2022-11-26T05:07:43.862Z,46.40
2022-11-26T05:10:10.794Z,48.35
2022-11-26T05:12:37.208Z,50.05
2022-11-26T05:15:04.340Z,51.65
2022-11-26T05:17:31.098Z,49.85
2022-11-26T05:19:57.524Z,50.40
2022-11-26T05:22:24.002Z,45.28
2022-11-26T05:24:50.524Z,49.90
2022-11-26T05:27:16.953Z,43.95
2022-11-26T05:29:43.390Z,50.33
2022-11-26T05:32:09.876Z,43.30
2022-11-26T05:34:36.643Z,44.53
2022-11-26T05:37:03.378Z,38.80
2022-11-26T05:39:29.811Z,42.10
2022-11-26T05:41:56.231Z,51.08
2022-11-26T05:44:22.685Z,39.45
2022-11-26T05:46:49.142Z,50.35
2022-11-26T05:49:15.550Z,42.80
2022-11-26T05:51:42.022Z,46.97
2022-11-26T05:54:12.182Z,47.05
2022-11-26T05:56:38.668Z,46.65
2022-11-26T05:59:05.130Z,49.78
2022-11-26T06:01:31.564Z,41.97
2022-11-26T06:03:58.044Z,46.67
2022-11-26T06:06:24.569Z,49.38
2022-11-26T06:08:51.096Z,47.25
2022-11-26T06:11:17.586Z,46.70
2022-11-26T06:13:44.043Z,52.10
2022-11-26T06:16:10.669Z,61.95
2022-11-26T06:18:37.732Z,109.22
2022-11-26T06:21:05.178Z,202.68
2022-11-26T06:23:31.972Z,144.77
2022-11-26T06:25:58.755Z,102.18
2022-11-26T06:28:25.183Z,88.97
2022-11-26T06:30:51.690Z,82.00
2022-11-26T06:33:18.100Z,79.85
2022-11-26T06:35:44.560Z,75.80
2022-11-26T06:38:11.028Z,72.03
2022-11-26T06:40:37.480Z,70.28
2022-11-26T06:43:03.885Z,71.30
2022-11-26T06:45:30.372Z,73.90
2022-11-26T06:47:56.839Z,73.85
2022-11-26T06:50:23.287Z,67.70
2022-11-26T06:52:53.609Z,69.03
2022-11-26T06:55:20.140Z,88.55
2022-11-26T06:57:49.343Z,63.92
2022-11-26T07:00:15.789Z,57.25
2022-11-26T07:02:43.367Z,72.03
2022-11-26T07:05:09.923Z,70.75
2022-11-26T07:07:37.582Z,70.22
2022-11-26T07:10:04.299Z,74.25
2022-11-26T07:12:30.748Z,71.03
2022-11-26T07:14:57.182Z,59.90
2022-11-26T07:17:23.633Z,67.13
2022-11-26T07:19:50.115Z,61.03
2022-11-26T07:22:16.619Z,66.57
2022-11-26T07:24:43.088Z,66.22
2022-11-26T07:27:09.562Z,68.25
2022-11-26T07:29:35.996Z,62.10
2022-11-26T07:32:02.509Z,61.45
2022-11-26T07:34:29.009Z,64.57
2022-11-26T07:36:58.184Z,88.28
2022-11-26T07:39:24.879Z,84.20
2022-11-26T07:41:51.332Z,82.95
2022-11-26T07:44:17.817Z,81.88
2022-11-26T07:46:44.380Z,68.13
2022-11-26T07:49:10.887Z,76.70
2022-11-26T07:51:37.394Z,68.68
2022-11-26T07:54:04.924Z,72.38
2022-11-26T07:56:31.413Z,68.95
2022-11-26T07:58:57.831Z,66.93
2022-11-26T08:01:27.285Z,67.75
2022-11-26T08:03:53.843Z,66.72
2022-11-26T08:06:21.535Z,68.82
2022-11-26T08:08:48.198Z,70.07
2022-11-26T08:11:16.268Z,82.75
2022-11-26T08:13:43.506Z,74.30
2022-11-26T08:16:10.132Z,74.57
2022-11-26T08:18:36.693Z,71.28
2022-11-26T08:21:03.197Z,66.50
2022-11-26T08:23:30.432Z,65.72
2022-11-26T08:26:21.441Z,58.15
2022-11-26T08:28:43.912Z,57.95
2022-11-26T08:31:11.280Z,58.13
2022-11-26T08:33:37.987Z,60.25
2022-11-26T08:36:07.642Z,55.88
2022-11-26T08:38:35.644Z,54.63
2022-11-26T08:41:04.441Z,55.55
2022-11-26T08:44:04.077Z,53.28
2022-11-26T08:46:17.589Z,52.97
2022-11-26T08:48:45.239Z,56.55
2022-11-26T08:51:12.231Z,51.88
2022-11-26T08:53:39.130Z,52.50
2022-11-26T08:56:07.254Z,54.13
2022-11-26T08:58:34.552Z,52.65
2022-11-26T09:01:07.863Z,50.15
2022-11-26T09:03:34.298Z,54.72
2022-11-26T09:06:01.682Z,51.42
2022-11-26T09:08:28.291Z,51.45
2022-11-26T09:10:55.392Z,50.90
2022-11-26T09:13:21.972Z,59.20
2022-11-26T09:15:49.421Z,53.17
2022-11-26T09:18:16.033Z,57.58
2022-11-26T09:20:42.413Z,58.22
2022-11-26T14:18:45.455Z,35.55
2022-11-26T14:21:12.815Z,36.38
2022-11-26T14:23:44.895Z,35.30
2022-11-26T14:26:13.974Z,35.88
2022-11-26T14:28:40.398Z,36.33
2022-11-26T14:31:08.204Z,33.30
2022-11-26T14:33:34.774Z,32.63
2022-11-26T14:36:01.266Z,30.70
2022-11-26T14:38:28.557Z,29.95
2022-11-26T14:40:59.244Z,33.03
2022-11-26T14:43:25.737Z,28.63
2022-11-26T14:46:10.747Z,26.33
2022-11-26T14:48:41.398Z,27.30
2022-11-26T14:51:08.485Z,26.20
2022-11-26T14:53:35.628Z,25.40
2022-11-26T14:56:02.852Z,26.92
2022-11-26T14:58:32.181Z,26.10
2022-11-26T15:01:03.702Z,26.38
2022-11-26T15:03:30.118Z,25.55
2022-11-26T15:05:56.562Z,22.58
2022-11-26T15:08:25.190Z,25.20
2022-11-26T15:10:52.977Z,28.63
2022-11-26T15:13:31.702Z,31.45
2022-11-26T15:16:02.553Z,35.85
2022-11-26T15:18:30.337Z,40.47
2022-11-26T15:20:57.597Z,33.28
2022-11-26T15:23:30.067Z,26.67
2022-11-26T15:25:57.565Z,25.40
2022-11-26T15:28:24.423Z,24.17
2022-11-26T15:30:55.629Z,24.50
2022-11-26T15:33:22.326Z,24.05
2022-11-26T15:35:57.388Z,23.27
2022-11-26T15:38:24.978Z,24.35
2022-11-26T15:40:57.391Z,23.48
2022-11-26T15:43:29.537Z,24.45
2022-11-26T15:46:11.378Z,23.77
2022-11-26T15:48:58.540Z,24.08
2022-11-26T15:51:32.165Z,25.60
2022-11-26T15:54:02.573Z,26.33
2022-11-26T15:56:31.725Z,26.33
2022-11-26T15:59:00.536Z,25.10
2022-11-26T16:01:28.733Z,26.00
2022-11-26T16:03:55.959Z,24.30
2022-11-26T16:06:29.177Z,23.77
2022-11-26T16:09:06.917Z,22.05
2022-11-26T16:11:36.764Z,22.67
2022-11-26T16:14:22.751Z,26.65
2022-11-26T16:16:50.252Z,79.43
2022-11-26T16:19:17.321Z,37.13
2022-11-26T16:21:48.083Z,32.00
2022-11-26T16:24:20.633Z,28.55
2022-11-26T16:27:06.571Z,24.83
2022-11-26T16:29:33.775Z,27.95
2022-11-26T16:32:00.191Z,25.42
2022-11-26T16:34:29.678Z,24.15
2022-11-26T16:37:00.594Z,25.25
2022-11-26T16:39:30.202Z,25.07
2022-11-26T16:41:57.081Z,26.67
2022-11-26T16:44:23.521Z,28.33
2022-11-26T16:46:51.337Z,28.60
2022-11-26T16:49:17.813Z,28.60
2022-11-26T16:51:44.230Z,32.58
2022-11-26T16:54:10.701Z,29.90
2022-11-26T16:56:38.304Z,30.83
2022-11-26T16:59:26.146Z,28.55
2022-11-26T17:01:52.809Z,31.05
2022-11-26T17:04:19.337Z,32.08
2022-11-26T17:06:46.098Z,32.15
2022-11-26T17:09:16.932Z,30.02
2022-11-26T17:11:43.515Z,30.02
2022-11-26T17:14:10.641Z,33.25
2022-11-26T17:16:39.109Z,41.13
2022-11-26T17:19:05.883Z,33.65
2022-11-26T17:21:32.461Z,37.33
2022-11-26T17:23:58.966Z,35.50
2022-11-26T17:26:25.541Z,37.50
2022-11-26T17:28:52.053Z,39.10
2022-11-26T17:31:18.775Z,38.63
2022-11-26T17:33:45.411Z,43.58
2022-11-26T17:36:19.564Z,41.30
2022-11-26T17:38:46.637Z,42.40
2022-11-26T17:41:14.028Z,40.92
2022-11-26T17:43:40.655Z,41.35
2022-11-26T17:46:14.074Z,42.60
2022-11-26T17:48:40.534Z,41.42
2022-11-26T17:51:06.965Z,42.63
2022-11-26T17:53:33.378Z,41.13
2022-11-26T17:55:59.794Z,42.40
2022-11-26T17:58:26.324Z,44.33
2022-11-26T18:00:52.825Z,40.03
2022-11-26T18:03:20.820Z,43.55
2022-11-26T18:05:47.343Z,42.47
2022-11-26T18:08:13.844Z,44.75
2022-11-26T18:10:41.028Z,48.45
2022-11-26T18:13:07.420Z,51.03
2022-11-26T18:15:33.843Z,45.55
2022-11-26T18:18:00.801Z,47.88
2022-11-26T18:20:28.876Z,46.70
2022-11-26T18:22:56.899Z,50.05
2022-11-26T18:25:23.743Z,49.22
2022-11-26T18:27:50.218Z,50.15
2022-11-26T18:30:16.998Z,51.40
2022-11-26T18:32:43.720Z,47.20
2022-11-26T18:35:10.660Z,47.75
2022-11-26T18:37:37.691Z,45.40
2022-11-26T18:40:04.582Z,45.22
2022-11-26T18:42:38.723Z,60.63
2022-11-26T18:45:06.487Z,64.28
2022-11-26T18:47:33.337Z,93.00
2022-11-26T18:49:59.903Z,63.50
2022-11-26T18:52:26.325Z,58.55
2022-11-26T18:54:52.767Z,54.72
2022-11-26T18:57:19.191Z,62.65
2022-11-26T18:59:46.743Z,58.92
2022-11-26T19:02:13.819Z,54.55
2022-11-26T19:04:40.410Z,53.05
2022-11-26T19:07:06.913Z,49.70
2022-11-26T19:09:33.367Z,49.97
2022-11-26T19:11:59.785Z,45.97
2022-11-26T19:14:26.311Z,50.53
2022-11-26T19:16:52.984Z,49.70
2022-11-26T19:19:19.736Z,49.85
2022-11-26T19:21:46.301Z,48.88
2022-11-26T19:24:12.867Z,51.70
2022-11-26T19:26:41.440Z,51.55
2022-11-26T19:29:08.900Z,51.33
2022-11-26T19:31:35.928Z,49.95
2022-11-26T19:34:05.949Z,58.30
2022-11-26T19:36:38.155Z,54.30
2022-11-26T19:39:05.674Z,52.10
2022-11-26T19:41:32.303Z,51.78
2022-11-26T19:44:00.570Z,52.42
2022-11-26T19:46:27.625Z,53.35
2022-11-26T19:48:54.305Z,51.72
2022-11-26T19:51:21.685Z,54.25
2022-11-26T19:53:48.829Z,55.63
2022-11-26T19:56:16.633Z,56.78
2022-11-26T19:58:50.731Z,70.88
2022-11-26T20:01:17.849Z,56.08
2022-11-26T20:03:44.420Z,52.45
2022-11-26T20:06:15.926Z,61.75
2022-11-26T20:08:42.539Z,58.53
2022-11-26T20:11:09.298Z,71.80
2022-11-26T20:13:36.387Z,60.50
2022-11-26T20:16:10.217Z,60.25
2022-11-26T20:18:38.564Z,61.42
2022-11-26T20:21:06.685Z,64.38
2022-11-26T20:23:33.251Z,59.03
2022-11-26T20:25:59.796Z,65.85
2022-11-26T20:28:26.313Z,77.55
2022-11-26T20:30:52.838Z,65.90
2022-11-26T20:33:19.611Z,67.55
2022-11-26T20:35:46.394Z,67.75
2022-11-26T20:38:13.066Z,66.38
2022-11-26T20:40:41.395Z,63.15
2022-11-26T20:43:08.313Z,64.13
2022-11-26T20:45:35.017Z,61.95
2022-11-26T20:48:01.427Z,69.25
2022-11-26T20:50:27.865Z,64.63
2022-11-26T20:52:54.334Z,65.70
2022-11-26T20:55:22.042Z,65.63
2022-11-26T20:57:48.875Z,67.65
2022-11-26T21:00:17.095Z,65.50
2022-11-26T21:02:44.026Z,69.80
2022-11-26T21:05:10.513Z,70.53
2022-11-26T21:07:36.993Z,66.60
2022-11-26T21:10:03.755Z,68.68
2022-11-26T21:12:30.189Z,72.80
2022-11-26T21:14:56.615Z,68.78
2022-11-26T21:17:23.114Z,68.97
2022-11-26T21:19:49.647Z,68.07
2022-11-26T21:22:16.140Z,76.72
2022-11-26T21:24:42.590Z,74.15
2022-11-26T21:27:09.626Z,75.97
2022-11-26T21:29:36.171Z,72.85
2022-11-26T21:32:02.611Z,77.20
2022-11-26T21:34:29.068Z,75.60
2022-11-26T21:36:55.626Z,76.10
2022-11-26T21:39:22.277Z,76.03
2022-11-26T21:41:48.714Z,81.20
2022-11-26T21:44:15.270Z,78.18
2022-11-26T21:46:41.755Z,76.28
2022-11-26T21:49:08.358Z,78.40
2022-11-26T21:51:34.930Z,76.00
2022-11-26T21:54:01.350Z,81.60
2022-11-26T21:56:28.870Z,85.07
2022-11-26T21:58:57.019Z,80.18
2022-11-26T22:01:25.868Z,83.32
2022-11-26T22:03:54.975Z,80.10
2022-11-26T22:06:22.149Z,83.82
2022-11-26T22:08:48.928Z,79.25
2022-11-26T22:11:15.391Z,75.15
2022-11-26T22:13:41.997Z,81.65
2022-11-26T22:16:09.510Z,78.97
2022-11-26T22:18:37.379Z,79.88
2022-11-26T22:21:04.516Z,80.53
2022-11-26T22:23:30.989Z,81.68
2022-11-26T22:25:57.446Z,79.95
2022-11-26T22:28:29.723Z,82.32
2022-11-26T22:30:56.611Z,80.03
2022-11-26T22:33:23.100Z,78.82
2022-11-26T22:35:49.562Z,78.43
2022-11-26T22:38:16.074Z,73.63
2022-11-26T22:40:42.446Z,78.90
2022-11-26T22:43:08.841Z,78.25
2022-11-26T22:45:36.774Z,78.78
2022-11-26T22:48:03.385Z,79.93
2022-11-26T22:50:29.824Z,79.40
2022-11-26T22:52:56.254Z,78.97
2022-11-26T22:55:23.376Z,81.03
2022-11-26T22:57:49.930Z,81.40
2022-11-26T23:00:36.480Z,78.97
2022-11-26T23:05:43.575Z,82.65
2022-11-26T23:08:10.206Z,86.47
2022-11-26T23:10:36.769Z,85.57
2022-11-26T23:13:03.667Z,87.57
2022-11-26T23:15:30.143Z,84.72
2022-11-26T23:17:56.616Z,88.00
2022-11-26T23:20:23.261Z,84.78
2022-11-26T23:22:49.697Z,82.38
2022-11-26T23:25:16.225Z,81.53
2022-11-26T23:27:42.676Z,75.60
2022-11-26T23:30:09.433Z,77.95
2022-11-26T23:32:35.886Z,76.60
2022-11-26T23:35:02.369Z,77.15
2022-11-26T23:37:28.805Z,75.32
2022-11-26T23:39:55.316Z,74.28
2022-11-26T23:42:21.755Z,76.30
2022-11-26T23:44:48.178Z,76.03
2022-11-26T23:47:14.706Z,72.32
2022-11-26T23:49:41.427Z,70.43
2022-11-26T23:52:12.449Z,69.07
2022-11-26T23:54:38.925Z,70.20
2022-11-26T23:57:14.853Z,70.00
2022-11-26T23:59:43.746Z,66.93
